sensor_id;sensor_type;location;lat;lon;timestamp;pressure;altitude;pressure_sealevel;temperature;humidity
26531;BME280;14201;43.188;24.160;2022-11-20T00:00:55;98992.13;;;9.35;84.39
26531;BME280;14201;43.188;24.160;2022-11-20T00:03:21;98993.28;;;9.43;83.00
26531;BME280;14201;43.188;24.160;2022-11-20T00:05:47;98986.25;;;9.41;83.01
26531;BME280;14201;43.188;24.160;2022-11-20T00:08:13;98979.56;;;9.23;82.37
26531;BME280;14201;43.188;24.160;2022-11-20T00:10:39;98979.50;;;9.22;81.26
26531;BME280;14201;43.188;24.160;2022-11-20T00:13:06;98972.28;;;9.13;82.20
26531;BME280;14201;43.188;24.160;2022-11-20T00:15:32;98989.75;;;8.95;83.68
26531;BME280;14201;43.188;24.160;2022-11-20T00:17:57;98984.25;;;8.87;85.94
26531;BME280;14201;43.188;24.160;2022-11-20T00:20:23;98979.22;;;8.92;86.50
26531;BME280;14201;43.188;24.160;2022-11-20T00:22:49;98983.44;;;8.88;86.81
26531;BME280;14201;43.188;24.160;2022-11-20T00:25:15;98979.44;;;8.96;86.09
26531;BME280;14201;43.188;24.160;2022-11-20T00:27:41;98979.16;;;9.13;85.52
26531;BME280;14201;43.188;24.160;2022-11-20T00:30:07;98988.81;;;9.15;85.76
26531;BME280;14201;43.188;24.160;2022-11-20T00:32:33;98976.63;;;9.14;86.01
26531;BME280;14201;43.188;24.160;2022-11-20T00:34:58;98969.25;;;8.80;87.81
26531;BME280;14201;43.188;24.160;2022-11-20T00:37:24;98975.41;;;8.82;87.62
26531;BME280;14201;43.188;24.160;2022-11-20T00:39:49;98965.56;;;8.96;85.29
26531;BME280;14201;43.188;24.160;2022-11-20T00:42:15;98981.19;;;8.75;83.58
26531;BME280;14201;43.188;24.160;2022-11-20T00:44:40;98987.69;;;8.63;84.05
26531;BME280;14201;43.188;24.160;2022-11-20T00:47:06;98980.38;;;8.53;84.34
26531;BME280;14201;43.188;24.160;2022-11-20T00:49:31;98967.31;;;8.52;84.78
26531;BME280;14201;43.188;24.160;2022-11-20T00:51:57;98961.13;;;8.48;86.11
26531;BME280;14201;43.188;24.160;2022-11-20T00:54:22;98952.78;;;8.57;87.41
26531;BME280;14201;43.188;24.160;2022-11-20T00:56:48;98961.50;;;8.57;87.27
26531;BME280;14201;43.188;24.160;2022-11-20T00:59:13;98951.28;;;8.62;87.31
26531;BME280;14201;43.188;24.160;2022-11-20T01:01:39;98968.56;;;8.61;87.84
26531;BME280;14201;43.188;24.160;2022-11-20T01:04:05;98957.47;;;8.65;88.08
26531;BME280;14201;43.188;24.160;2022-11-20T01:06:35;98950.19;;;8.57;89.59
26531;BME280;14201;43.188;24.160;2022-11-20T01:09:05;98944.06;;;8.77;87.41
26531;BME280;14201;43.188;24.160;2022-11-20T01:11:34;98941.19;;;8.70;85.85
26531;BME280;14201;43.188;24.160;2022-11-20T01:14:02;98923.56;;;8.61;86.04
26531;BME280;14201;43.188;24.160;2022-11-20T01:16:36;98926.09;;;8.59;84.57
26531;BME280;14201;43.188;24.160;2022-11-20T01:19:04;98923.69;;;8.41;85.35
26531;BME280;14201;43.188;24.160;2022-11-20T01:21:35;98905.28;;;8.37;85.35
26531;BME280;14201;43.188;24.160;2022-11-20T01:24:02;98933.75;;;8.56;85.64
26531;BME280;14201;43.188;24.160;2022-11-20T01:26:33;98924.25;;;8.57;86.36
26531;BME280;14201;43.188;24.160;2022-11-20T01:28:59;98934.34;;;8.72;86.90
26531;BME280;14201;43.188;24.160;2022-11-20T01:31:31;98925.63;;;8.70;88.09
26531;BME280;14201;43.188;24.160;2022-11-20T01:33:59;98944.50;;;8.65;86.13
26531;BME280;14201;43.188;24.160;2022-11-20T01:36:26;98925.44;;;8.42;85.22
26531;BME280;14201;43.188;24.160;2022-11-20T01:39:01;98926.38;;;8.23;85.75
26531;BME280;14201;43.188;24.160;2022-11-20T01:41:30;98942.38;;;8.34;86.68
26531;BME280;14201;43.188;24.160;2022-11-20T01:44:17;98924.66;;;8.45;86.97
26531;BME280;14201;43.188;24.160;2022-11-20T01:46:59;98913.41;;;8.44;87.25
26531;BME280;14201;43.188;24.160;2022-11-20T01:49:40;98901.56;;;8.51;86.94
26531;BME280;14201;43.188;24.160;2022-11-20T01:52:17;98877.22;;;8.47;85.34
26531;BME280;14201;43.188;24.160;2022-11-20T01:55:15;98873.34;;;8.38;85.22
26531;BME280;14201;43.188;24.160;2022-11-20T01:57:44;98851.59;;;8.34;85.10
26531;BME280;14201;43.188;24.160;2022-11-20T02:00:13;98853.09;;;8.29;85.50
26531;BME280;14201;43.188;24.160;2022-11-20T02:02:47;98834.56;;;8.18;86.48
26531;BME280;14201;43.188;24.160;2022-11-20T02:08:04;98858.50;;;8.34;86.79
26531;BME280;14201;43.188;24.160;2022-11-20T02:10:31;98849.00;;;8.34;88.65
26531;BME280;14201;43.188;24.160;2022-11-20T02:12:57;98859.47;;;8.37;91.04
26531;BME280;14201;43.188;24.160;2022-11-20T02:15:42;98867.09;;;8.33;92.48
26531;BME280;14201;43.188;24.160;2022-11-20T02:18:10;98847.28;;;8.35;92.14
26531;BME280;14201;43.188;24.160;2022-11-20T02:20:37;98842.94;;;8.34;91.01
26531;BME280;14201;43.188;24.160;2022-11-20T02:25:34;98867.66;;;8.25;89.36
26531;BME280;14201;43.188;24.160;2022-11-20T02:28:02;98874.75;;;8.07;91.51
26531;BME280;14201;43.188;24.160;2022-11-20T02:30:27;98888.19;;;8.19;92.72
26531;BME280;14201;43.188;24.160;2022-11-20T02:32:53;98905.13;;;8.32;93.21
26531;BME280;14201;43.188;24.160;2022-11-20T02:37:43;98909.94;;;8.44;99.18
26531;BME280;14201;43.188;24.160;2022-11-20T02:40:09;98906.38;;;8.64;100.00
26531;BME280;14201;43.188;24.160;2022-11-20T02:42:35;98912.28;;;8.83;100.00
26531;BME280;14201;43.188;24.160;2022-11-20T02:45:01;98918.75;;;8.94;100.00
26531;BME280;14201;43.188;24.160;2022-11-20T02:47:26;98933.56;;;8.97;100.00
26531;BME280;14201;43.188;24.160;2022-11-20T02:49:51;98954.75;;;9.07;100.00
26531;BME280;14201;43.188;24.160;2022-11-20T02:52:17;98936.22;;;9.22;100.00
26531;BME280;14201;43.188;24.160;2022-11-20T02:54:42;98933.00;;;9.30;100.00
26531;BME280;14201;43.188;24.160;2022-11-20T02:57:07;98953.91;;;9.33;100.00
26531;BME280;14201;43.188;24.160;2022-11-20T02:59:32;98963.47;;;9.34;100.00
26531;BME280;14201;43.188;24.160;2022-11-20T03:01:58;98974.94;;;9.39;100.00
26531;BME280;14201;43.188;24.160;2022-11-20T03:04:23;98984.25;;;9.34;100.00
26531;BME280;14201;43.188;24.160;2022-11-20T03:06:48;98983.59;;;9.39;100.00
26531;BME280;14201;43.188;24.160;2022-11-20T03:09:14;98992.75;;;9.52;100.00
26531;BME280;14201;43.188;24.160;2022-11-20T03:11:39;99005.28;;;9.64;100.00
26531;BME280;14201;43.188;24.160;2022-11-20T03:14:04;99009.53;;;9.62;100.00
26531;BME280;14201;43.188;24.160;2022-11-20T03:16:30;99027.97;;;9.68;100.00
26531;BME280;14201;43.188;24.160;2022-11-20T03:18:56;99032.84;;;9.83;100.00
26531;BME280;14201;43.188;24.160;2022-11-20T03:21:21;99028.28;;;9.77;100.00
26531;BME280;14201;43.188;24.160;2022-11-20T03:23:47;99048.59;;;9.88;100.00
26531;BME280;14201;43.188;24.160;2022-11-20T03:28:41;99044.53;;;9.96;100.00
26531;BME280;14201;43.188;24.160;2022-11-20T03:31:07;99055.00;;;9.97;100.00
26531;BME280;14201;43.188;24.160;2022-11-20T03:33:33;99056.81;;;10.00;100.00
26531;BME280;14201;43.188;24.160;2022-11-20T03:36:02;99039.13;;;10.15;100.00
26531;BME280;14201;43.188;24.160;2022-11-20T03:38:29;99055.78;;;10.20;100.00
26531;BME280;14201;43.188;24.160;2022-11-20T03:40:57;99062.75;;;10.21;100.00
26531;BME280;14201;43.188;24.160;2022-11-20T03:43:23;99067.44;;;10.30;100.00
26531;BME280;14201;43.188;24.160;2022-11-20T03:45:48;99077.75;;;10.29;100.00
26531;BME280;14201;43.188;24.160;2022-11-20T03:48:13;99087.34;;;10.30;100.00
26531;BME280;14201;43.188;24.160;2022-11-20T03:50:39;99085.56;;;10.29;100.00
26531;BME280;14201;43.188;24.160;2022-11-20T03:53:04;99089.94;;;10.30;100.00
26531;BME280;14201;43.188;24.160;2022-11-20T03:55:29;99101.41;;;10.35;100.00
26531;BME280;14201;43.188;24.160;2022-11-20T03:57:55;99094.97;;;10.49;100.00
26531;BME280;14201;43.188;24.160;2022-11-20T04:00:20;99097.88;;;10.58;100.00
26531;BME280;14201;43.188;24.160;2022-11-20T04:02:46;99084.16;;;10.64;100.00
26531;BME280;14201;43.188;24.160;2022-11-20T04:05:11;99090.91;;;10.57;100.00
26531;BME280;14201;43.188;24.160;2022-11-20T04:07:36;99076.00;;;10.53;100.00
26531;BME280;14201;43.188;24.160;2022-11-20T04:10:02;99059.66;;;10.57;100.00
26531;BME280;14201;43.188;24.160;2022-11-20T04:12:27;99076.69;;;10.48;100.00
26531;BME280;14201;43.188;24.160;2022-11-20T04:14:52;99102.72;;;10.48;100.00
26531;BME280;14201;43.188;24.160;2022-11-20T04:17:18;99080.78;;;10.41;100.00
26531;BME280;14201;43.188;24.160;2022-11-20T04:19:43;99077.50;;;10.45;100.00
26531;BME280;14201;43.188;24.160;2022-11-20T04:22:08;99096.66;;;10.49;100.00
26531;BME280;14201;43.188;24.160;2022-11-20T04:24:36;99088.91;;;10.50;100.00
26531;BME280;14201;43.188;24.160;2022-11-20T04:27:01;99089.97;;;10.55;100.00
26531;BME280;14201;43.188;24.160;2022-11-20T04:29:27;99097.19;;;10.64;100.00
26531;BME280;14201;43.188;24.160;2022-11-20T04:31:52;99111.13;;;10.66;100.00
26531;BME280;14201;43.188;24.160;2022-11-20T04:34:17;99110.53;;;10.73;100.00
26531;BME280;14201;43.188;24.160;2022-11-20T04:36:43;99111.41;;;10.74;100.00
26531;BME280;14201;43.188;24.160;2022-11-20T04:39:11;99099.97;;;10.69;100.00
26531;BME280;14201;43.188;24.160;2022-11-20T04:41:37;99109.53;;;10.70;100.00
26531;BME280;14201;43.188;24.160;2022-11-20T04:44:03;99118.56;;;10.54;100.00
26531;BME280;14201;43.188;24.160;2022-11-20T04:46:39;99131.50;;;10.52;100.00
26531;BME280;14201;43.188;24.160;2022-11-20T04:49:04;99123.75;;;10.54;100.00
26531;BME280;14201;43.188;24.160;2022-11-20T04:51:30;99111.78;;;10.59;100.00
26531;BME280;14201;43.188;24.160;2022-11-20T04:53:56;99125.81;;;10.62;100.00
26531;BME280;14201;43.188;24.160;2022-11-20T04:56:21;99138.72;;;10.59;100.00
26531;BME280;14201;43.188;24.160;2022-11-20T04:58:47;99135.97;;;10.55;100.00
26531;BME280;14201;43.188;24.160;2022-11-20T05:01:15;99137.31;;;10.69;100.00
26531;BME280;14201;43.188;24.160;2022-11-20T05:03:41;99133.44;;;10.58;100.00
26531;BME280;14201;43.188;24.160;2022-11-20T05:06:07;99152.34;;;10.52;100.00
26531;BME280;14201;43.188;24.160;2022-11-20T05:08:33;99138.81;;;10.62;100.00
26531;BME280;14201;43.188;24.160;2022-11-20T05:10:59;99132.22;;;10.72;100.00
26531;BME280;14201;43.188;24.160;2022-11-20T05:13:25;99138.22;;;10.71;100.00
26531;BME280;14201;43.188;24.160;2022-11-20T05:15:51;99144.25;;;10.69;100.00
26531;BME280;14201;43.188;24.160;2022-11-20T05:18:17;99147.97;;;10.77;100.00
26531;BME280;14201;43.188;24.160;2022-11-20T05:20:42;99137.63;;;10.78;100.00
26531;BME280;14201;43.188;24.160;2022-11-20T05:23:07;99143.06;;;10.86;100.00
26531;BME280;14201;43.188;24.160;2022-11-20T05:25:32;99132.91;;;10.94;100.00
26531;BME280;14201;43.188;24.160;2022-11-20T05:27:58;99147.63;;;10.93;100.00
26531;BME280;14201;43.188;24.160;2022-11-20T05:30:23;99156.34;;;10.94;100.00
26531;BME280;14201;43.188;24.160;2022-11-20T05:32:49;99153.88;;;10.98;100.00
26531;BME280;14201;43.188;24.160;2022-11-20T05:35:14;99156.41;;;10.95;100.00
26531;BME280;14201;43.188;24.160;2022-11-20T05:37:39;99166.28;;;11.06;100.00
26531;BME280;14201;43.188;24.160;2022-11-20T05:40:05;99165.50;;;11.08;100.00
26531;BME280;14201;43.188;24.160;2022-11-20T05:42:30;99155.94;;;11.07;100.00
26531;BME280;14201;43.188;24.160;2022-11-20T05:44:56;99165.66;;;11.13;100.00
26531;BME280;14201;43.188;24.160;2022-11-20T05:47:22;99177.84;;;11.14;100.00
26531;BME280;14201;43.188;24.160;2022-11-20T05:49:47;99167.84;;;11.28;100.00
26531;BME280;14201;43.188;24.160;2022-11-20T05:52:13;99153.00;;;11.25;100.00
26531;BME280;14201;43.188;24.160;2022-11-20T05:54:38;99147.09;;;11.31;100.00
26531;BME280;14201;43.188;24.160;2022-11-20T05:57:03;99160.72;;;11.22;100.00
26531;BME280;14201;43.188;24.160;2022-11-20T05:59:29;99167.72;;;11.23;100.00
26531;BME280;14201;43.188;24.160;2022-11-20T06:01:54;99174.59;;;11.21;100.00
26531;BME280;14201;43.188;24.160;2022-11-20T06:04:19;99198.84;;;11.18;100.00
26531;BME280;14201;43.188;24.160;2022-11-20T06:06:45;99211.28;;;11.27;100.00
26531;BME280;14201;43.188;24.160;2022-11-20T06:09:10;99209.47;;;11.25;100.00
26531;BME280;14201;43.188;24.160;2022-11-20T06:11:35;99224.44;;;11.30;100.00
26531;BME280;14201;43.188;24.160;2022-11-20T06:14:01;99225.22;;;11.28;100.00
26531;BME280;14201;43.188;24.160;2022-11-20T06:16:26;99232.22;;;11.29;100.00
26531;BME280;14201;43.188;24.160;2022-11-20T06:18:52;99237.66;;;11.36;100.00
26531;BME280;14201;43.188;24.160;2022-11-20T06:21:18;99248.72;;;11.29;100.00
26531;BME280;14201;43.188;24.160;2022-11-20T06:23:44;99259.94;;;11.27;100.00
26531;BME280;14201;43.188;24.160;2022-11-20T06:26:11;99254.81;;;11.30;100.00
26531;BME280;14201;43.188;24.160;2022-11-20T06:28:37;99235.81;;;11.34;100.00
26531;BME280;14201;43.188;24.160;2022-11-20T06:31:02;99226.50;;;11.40;100.00
26531;BME280;14201;43.188;24.160;2022-11-20T06:33:28;99242.47;;;11.51;100.00
26531;BME280;14201;43.188;24.160;2022-11-20T06:35:57;99246.00;;;11.52;100.00
26531;BME280;14201;43.188;24.160;2022-11-20T06:38:23;99255.75;;;11.57;100.00
26531;BME280;14201;43.188;24.160;2022-11-20T06:40:49;99260.78;;;11.53;100.00
26531;BME280;14201;43.188;24.160;2022-11-20T06:43:14;99255.50;;;11.51;100.00
26531;BME280;14201;43.188;24.160;2022-11-20T06:45:39;99252.16;;;11.55;100.00
26531;BME280;14201;43.188;24.160;2022-11-20T06:48:05;99263.69;;;11.62;100.00
26531;BME280;14201;43.188;24.160;2022-11-20T06:50:30;99257.69;;;11.65;100.00
26531;BME280;14201;43.188;24.160;2022-11-20T06:52:55;99268.22;;;11.68;100.00
26531;BME280;14201;43.188;24.160;2022-11-20T06:55:21;99248.34;;;11.71;100.00
26531;BME280;14201;43.188;24.160;2022-11-20T06:57:46;99250.09;;;11.72;100.00
26531;BME280;14201;43.188;24.160;2022-11-20T07:00:12;99251.22;;;11.52;100.00
26531;BME280;14201;43.188;24.160;2022-11-20T07:02:37;99248.91;;;11.62;100.00
26531;BME280;14201;43.188;24.160;2022-11-20T07:05:03;99241.81;;;11.86;99.25
26531;BME280;14201;43.188;24.160;2022-11-20T07:07:28;99254.03;;;11.87;99.66
26531;BME280;14201;43.188;24.160;2022-11-20T07:09:54;99248.72;;;11.83;100.00
26531;BME280;14201;43.188;24.160;2022-11-20T07:12:19;99248.28;;;11.97;99.89
26531;BME280;14201;43.188;24.160;2022-11-20T07:14:45;99257.47;;;11.86;100.00
26531;BME280;14201;43.188;24.160;2022-11-20T07:17:11;99255.56;;;11.53;100.00
26531;BME280;14201;43.188;24.160;2022-11-20T07:19:36;99259.84;;;11.23;100.00
26531;BME280;14201;43.188;24.160;2022-11-20T07:22:01;99257.44;;;11.04;100.00
26531;BME280;14201;43.188;24.160;2022-11-20T07:24:27;99269.38;;;11.23;100.00
26531;BME280;14201;43.188;24.160;2022-11-20T07:26:52;99257.50;;;11.06;100.00
26531;BME280;14201;43.188;24.160;2022-11-20T07:29:17;99244.78;;;11.15;100.00
26531;BME280;14201;43.188;24.160;2022-11-20T07:31:43;99245.19;;;11.27;100.00
26531;BME280;14201;43.188;24.160;2022-11-20T07:34:08;99253.06;;;11.29;100.00
26531;BME280;14201;43.188;24.160;2022-11-20T07:36:34;99244.56;;;11.34;100.00
26531;BME280;14201;43.188;24.160;2022-11-20T07:39:00;99237.69;;;11.38;100.00
26531;BME280;14201;43.188;24.160;2022-11-20T07:41:25;99241.94;;;11.34;100.00
26531;BME280;14201;43.188;24.160;2022-11-20T07:43:50;99246.94;;;11.28;100.00
26531;BME280;14201;43.188;24.160;2022-11-20T07:46:16;99242.91;;;11.38;100.00
26531;BME280;14201;43.188;24.160;2022-11-20T07:48:41;99243.97;;;11.43;100.00
26531;BME280;14201;43.188;24.160;2022-11-20T07:51:07;99239.09;;;11.54;100.00
26531;BME280;14201;43.188;24.160;2022-11-20T07:53:32;99246.25;;;11.34;100.00
26531;BME280;14201;43.188;24.160;2022-11-20T07:56:01;99245.31;;;11.30;100.00
26531;BME280;14201;43.188;24.160;2022-11-20T07:58:28;99235.06;;;11.36;100.00
26531;BME280;14201;43.188;24.160;2022-11-20T08:00:54;99226.06;;;11.54;100.00
26531;BME280;14201;43.188;24.160;2022-11-20T08:03:19;99207.41;;;11.41;100.00
26531;BME280;14201;43.188;24.160;2022-11-20T08:05:44;99214.63;;;11.50;100.00
26531;BME280;14201;43.188;24.160;2022-11-20T08:08:10;99216.75;;;11.62;100.00
26531;BME280;14201;43.188;24.160;2022-11-20T08:10:35;99230.41;;;11.55;100.00
26531;BME280;14201;43.188;24.160;2022-11-20T08:13:01;99221.84;;;11.59;100.00
26531;BME280;14201;43.188;24.160;2022-11-20T08:15:47;99214.78;;;11.55;100.00
26531;BME280;14201;43.188;24.160;2022-11-20T08:18:13;99208.31;;;11.42;100.00
26531;BME280;14201;43.188;24.160;2022-11-20T08:20:38;99211.09;;;11.48;100.00
26531;BME280;14201;43.188;24.160;2022-11-20T08:23:05;99208.31;;;11.42;100.00
26531;BME280;14201;43.188;24.160;2022-11-20T08:25:31;99210.31;;;11.51;100.00
26531;BME280;14201;43.188;24.160;2022-11-20T08:28:00;99203.81;;;11.65;100.00
26531;BME280;14201;43.188;24.160;2022-11-20T08:30:26;99194.19;;;11.64;100.00
26531;BME280;14201;43.188;24.160;2022-11-20T08:32:52;99195.94;;;11.63;100.00
26531;BME280;14201;43.188;24.160;2022-11-20T08:35:17;99194.50;;;11.73;100.00
26531;BME280;14201;43.188;24.160;2022-11-20T08:37:45;99208.50;;;11.77;100.00
26531;BME280;14201;43.188;24.160;2022-11-20T08:40:11;99209.38;;;11.77;99.39
26531;BME280;14201;43.188;24.160;2022-11-20T08:42:36;99201.63;;;11.79;100.00
26531;BME280;14201;43.188;24.160;2022-11-20T08:45:02;99180.91;;;11.85;99.80
26531;BME280;14201;43.188;24.160;2022-11-20T08:47:28;99172.13;;;11.81;99.50
26531;BME280;14201;43.188;24.160;2022-11-20T08:49:53;99172.41;;;11.91;100.00
26531;BME280;14201;43.188;24.160;2022-11-20T08:52:19;99171.50;;;11.90;99.17
26531;BME280;14201;43.188;24.160;2022-11-20T08:54:44;99170.63;;;11.90;99.07
26531;BME280;14201;43.188;24.160;2022-11-20T08:57:10;99165.63;;;11.97;99.90
26531;BME280;14201;43.188;24.160;2022-11-20T08:59:35;99165.78;;;12.02;98.68
26531;BME280;14201;43.188;24.160;2022-11-20T09:02:01;99162.44;;;12.08;98.79
26531;BME280;14201;43.188;24.160;2022-11-20T09:04:27;99161.84;;;12.16;97.11
26531;BME280;14201;43.188;24.160;2022-11-20T09:06:52;99160.25;;;12.23;97.02
26531;BME280;14201;43.188;24.160;2022-11-20T09:09:18;99151.81;;;12.32;96.04
26531;BME280;14201;43.188;24.160;2022-11-20T09:11:44;99137.91;;;12.33;96.63
26531;BME280;14201;43.188;24.160;2022-11-20T09:14:10;99135.34;;;12.34;97.01
26531;BME280;14201;43.188;24.160;2022-11-20T09:16:35;99148.81;;;12.50;97.99
26531;BME280;14201;43.188;24.160;2022-11-20T09:19:01;99146.91;;;12.44;97.85
26531;BME280;14201;43.188;24.160;2022-11-20T09:21:27;99127.94;;;12.51;98.53
26531;BME280;14201;43.188;24.160;2022-11-20T09:23:52;99143.00;;;12.61;95.99
26531;BME280;14201;43.188;24.160;2022-11-20T09:26:18;99136.16;;;12.65;96.52
26531;BME280;14201;43.188;24.160;2022-11-20T09:28:44;99130.88;;;12.64;96.24
26531;BME280;14201;43.188;24.160;2022-11-20T09:31:30;99122.25;;;12.68;95.17
26531;BME280;14201;43.188;24.160;2022-11-20T09:33:55;99119.78;;;12.72;94.78
26531;BME280;14201;43.188;24.160;2022-11-20T09:36:21;99123.38;;;12.77;94.39
26531;BME280;14201;43.188;24.160;2022-11-20T09:38:47;99124.53;;;12.89;94.25
26531;BME280;14201;43.188;24.160;2022-11-20T09:44:07;99134.88;;;12.84;95.88
26531;BME280;14201;43.188;24.160;2022-11-20T09:46:50;99119.75;;;13.07;93.89
26531;BME280;14201;43.188;24.160;2022-11-20T09:56:42;99126.56;;;13.37;93.01
26531;BME280;14201;43.188;24.160;2022-11-20T09:59:14;99141.97;;;13.25;93.89
26531;BME280;14201;43.188;24.160;2022-11-20T10:01:44;99149.50;;;13.11;94.71
26531;BME280;14201;43.188;24.160;2022-11-20T10:04:12;99168.25;;;12.94;97.12
26531;BME280;14201;43.188;24.160;2022-11-20T10:06:51;99185.38;;;12.83;100.00
26531;BME280;14201;43.188;24.160;2022-11-20T10:09:29;99201.59;;;12.70;100.00
26531;BME280;14201;43.188;24.160;2022-11-20T10:12:04;99205.66;;;12.58;100.00
26531;BME280;14201;43.188;24.160;2022-11-20T10:27:37;99174.19;;;12.89;100.00
26531;BME280;14201;43.188;24.160;2022-11-20T10:32:32;99172.00;;;12.71;99.82
26531;BME280;14201;43.188;24.160;2022-11-20T10:37:48;99168.88;;;12.84;100.00
26531;BME280;14201;43.188;24.160;2022-11-20T10:45:34;99148.34;;;12.33;100.00
26531;BME280;14201;43.188;24.160;2022-11-20T10:50:30;99151.72;;;12.60;100.00
26531;BME280;14201;43.188;24.160;2022-11-20T10:53:02;99140.13;;;12.51;100.00
26531;BME280;14201;43.188;24.160;2022-11-20T10:55:39;99119.81;;;12.40;100.00
26531;BME280;14201;43.188;24.160;2022-11-20T11:00:50;99118.84;;;12.35;100.00
26531;BME280;14201;43.188;24.160;2022-11-20T11:03:28;99125.97;;;12.43;100.00
26531;BME280;14201;43.188;24.160;2022-11-20T11:05:55;99124.56;;;12.55;100.00
26531;BME280;14201;43.188;24.160;2022-11-20T11:08:23;99125.66;;;12.64;100.00
26531;BME280;14201;43.188;24.160;2022-11-20T11:10:53;99108.28;;;12.66;100.00
26531;BME280;14201;43.188;24.160;2022-11-20T11:13:20;99086.59;;;12.68;100.00
26531;BME280;14201;43.188;24.160;2022-11-20T11:15:46;99090.09;;;12.69;100.00
26531;BME280;14201;43.188;24.160;2022-11-20T11:18:22;99100.22;;;12.93;100.00
26531;BME280;14201;43.188;24.160;2022-11-20T11:20:51;99104.13;;;13.09;100.00
26531;BME280;14201;43.188;24.160;2022-11-20T11:25:58;99065.69;;;13.06;100.00
26531;BME280;14201;43.188;24.160;2022-11-20T11:28:24;99064.38;;;12.86;100.00
26531;BME280;14201;43.188;24.160;2022-11-20T11:30:51;99084.03;;;12.70;100.00
26531;BME280;14201;43.188;24.160;2022-11-20T11:33:30;99091.09;;;12.74;100.00
26531;BME280;14201;43.188;24.160;2022-11-20T11:35:59;99078.47;;;12.57;100.00
26531;BME280;14201;43.188;24.160;2022-11-20T11:38:29;99064.03;;;12.72;100.00
26531;BME280;14201;43.188;24.160;2022-11-20T11:40:56;99057.34;;;12.85;100.00
26531;BME280;14201;43.188;24.160;2022-11-20T11:43:22;99051.53;;;12.96;100.00
26531;BME280;14201;43.188;24.160;2022-11-20T11:46:21;99061.34;;;13.05;100.00
26531;BME280;14201;43.188;24.160;2022-11-20T11:48:56;99057.06;;;13.09;100.00
26531;BME280;14201;43.188;24.160;2022-11-20T11:51:21;99048.22;;;13.04;100.00
26531;BME280;14201;43.188;24.160;2022-11-20T11:53:47;99066.53;;;13.04;100.00
26531;BME280;14201;43.188;24.160;2022-11-20T11:56:12;99075.97;;;12.98;100.00
26531;BME280;14201;43.188;24.160;2022-11-20T11:58:48;99095.88;;;12.92;100.00
26531;BME280;14201;43.188;24.160;2022-11-20T12:03:55;99100.22;;;12.93;100.00
26531;BME280;14201;43.188;24.160;2022-11-20T12:06:26;99104.63;;;12.94;100.00
26531;BME280;14201;43.188;24.160;2022-11-20T12:11:24;99136.22;;;13.03;100.00
26531;BME280;14201;43.188;24.160;2022-11-20T12:14:02;99143.34;;;13.09;100.00
26531;BME280;14201;43.188;24.160;2022-11-20T12:16:30;99141.41;;;13.02;100.00
26531;BME280;14201;43.188;24.160;2022-11-20T12:18:59;99132.38;;;13.25;100.00
26531;BME280;14201;43.188;24.160;2022-11-20T12:34:15;99135.69;;;12.48;100.00
26531;BME280;14201;43.188;24.160;2022-11-20T12:36:47;99113.00;;;12.80;100.00
26531;BME280;14201;43.188;24.160;2022-11-20T12:44:37;99120.03;;;12.83;100.00
26531;BME280;14201;43.188;24.160;2022-11-20T12:50:02;99081.06;;;12.92;100.00
26531;BME280;14201;43.188;24.160;2022-11-20T12:55:09;99047.56;;;13.14;100.00
26531;BME280;14201;43.188;24.160;2022-11-20T13:00:15;99077.97;;;13.09;100.00
26531;BME280;14201;43.188;24.160;2022-11-20T13:07:39;99121.69;;;13.16;100.00
26531;BME280;14201;43.188;24.160;2022-11-20T13:10:05;99109.53;;;13.18;100.00
26531;BME280;14201;43.188;24.160;2022-11-20T13:12:46;99114.91;;;13.23;100.00
26531;BME280;14201;43.188;24.160;2022-11-20T13:18:17;99128.22;;;13.33;100.00
26531;BME280;14201;43.188;24.160;2022-11-20T13:20:43;99112.75;;;13.43;100.00
26531;BME280;14201;43.188;24.160;2022-11-20T13:23:08;99117.50;;;13.59;100.00
26531;BME280;14201;43.188;24.160;2022-11-20T13:25:35;99104.69;;;13.74;100.00
26531;BME280;14201;43.188;24.160;2022-11-20T13:28:05;99103.91;;;13.77;100.00
26531;BME280;14201;43.188;24.160;2022-11-20T13:30:50;99127.53;;;13.82;100.00
26531;BME280;14201;43.188;24.160;2022-11-20T13:35:57;99146.56;;;13.74;100.00
26531;BME280;14201;43.188;24.160;2022-11-20T13:38:23;99146.63;;;13.76;100.00
26531;BME280;14201;43.188;24.160;2022-11-20T13:43:37;99150.31;;;13.86;100.00
26531;BME280;14201;43.188;24.160;2022-11-20T13:46:04;99147.66;;;13.83;100.00
26531;BME280;14201;43.188;24.160;2022-11-20T13:48:33;99153.69;;;13.80;100.00
26531;BME280;14201;43.188;24.160;2022-11-20T13:51:04;99130.94;;;13.77;100.00
26531;BME280;14201;43.188;24.160;2022-11-20T13:53:50;99101.91;;;13.65;100.00
26531;BME280;14201;43.188;24.160;2022-11-20T14:01:37;99063.91;;;13.04;100.00
26531;BME280;14201;43.188;24.160;2022-11-20T14:04:07;99123.41;;;13.14;100.00
26531;BME280;14201;43.188;24.160;2022-11-20T14:06:43;99125.44;;;13.27;100.00
26531;BME280;14201;43.188;24.160;2022-11-20T14:09:11;99099.25;;;13.26;100.00
26531;BME280;14201;43.188;24.160;2022-11-20T14:11:37;99108.00;;;13.26;100.00
26531;BME280;14201;43.188;24.160;2022-11-20T14:14:15;99120.38;;;13.33;100.00
26531;BME280;14201;43.188;24.160;2022-11-20T14:16:42;99109.94;;;13.33;100.00
26531;BME280;14201;43.188;24.160;2022-11-20T14:21:45;99075.28;;;13.44;100.00
26531;BME280;14201;43.188;24.160;2022-11-20T14:24:11;99077.00;;;13.42;100.00
26531;BME280;14201;43.188;24.160;2022-11-20T14:26:46;99079.66;;;13.45;100.00
26531;BME280;14201;43.188;24.160;2022-11-20T14:29:13;99089.28;;;13.46;100.00
26531;BME280;14201;43.188;24.160;2022-11-20T14:31:38;99083.03;;;13.39;100.00